Time;durP1;ratioP1;P1;durP2;ratioP2;P2;SDS_P1;SDS_P2;PMS_P1;PMS_P2;Temp;Humidity;BMP_temperature;BMP_pressure;BME280_temperature;BME280_humidity;BME280_pressure;Samples;Min_cycle;Max_cycle;Signal;HPM_P1;HPM_P2
2021/12/31 00:01:43;;;;;;;12.63;3.33;;;13.70;99.90;;;;;;5004919;28;20042;-91
2021/12/31 00:04:09;;;;;;;10.93;3.05;;;13.80;99.90;;;;;;5003420;28;20073;-90
2021/12/31 00:06:36;;;;;;;12.23;3.00;;;13.80;99.90;;;;;;4986616;28;20562;-90
2021/12/31 00:09:03;;;;;;;12.07;3.05;;;13.80;99.90;;;;;;4988997;28;20031;-90
2021/12/31 00:11:28;;;;;;;11.73;2.97;;;13.80;99.90;;;;;;5001918;28;20120;-90
2021/12/31 00:13:54;;;;;;;13.18;3.28;;;13.90;99.90;;;;;;5006619;28;20125;-91
2021/12/31 00:16:19;;;;;;;12.63;3.10;;;13.90;99.90;;;;;;5006600;28;20038;-91
2021/12/31 00:18:45;;;;;;;11.65;2.83;;;13.80;99.90;;;;;;5003848;28;20042;-90
2021/12/31 00:21:11;;;;;;;11.40;3.00;;;13.80;99.90;;;;;;4995043;28;20037;-90
2021/12/31 00:23:36;;;;;;;12.40;3.03;;;13.90;99.90;;;;;;5011929;28;20523;-90
2021/12/31 00:26:02;;;;;;;11.35;3.03;;;13.90;99.90;;;;;;4984049;28;20034;-90
2021/12/31 00:28:27;;;;;;;9.88;2.63;;;13.90;99.90;;;;;;4976677;28;20045;-89
2021/12/31 00:30:55;;;;;;;11.20;2.78;;;13.90;99.90;;;;;;5003099;28;20406;-90
2021/12/31 00:33:22;;;;;;;11.43;3.15;;;13.90;99.90;;;;;;4986913;28;20046;-90
2021/12/31 00:35:47;;;;;;;13.35;3.35;;;13.90;99.90;;;;;;4995162;28;20096;-90
2021/12/31 00:38:13;;;;;;;14.68;3.45;;;13.90;99.90;;;;;;5003358;28;20053;-90
2021/12/31 00:40:39;;;;;;;10.80;3.25;;;13.90;99.90;;;;;;4978441;28;20042;-90
2021/12/31 00:43:11;;;;;;;11.48;2.90;;;13.90;99.90;;;;;;4996457;28;20515;-89
2021/12/31 00:45:39;;;;;;;11.05;2.90;;;13.90;99.90;;;;;;4979035;28;20048;-90
2021/12/31 00:48:05;;;;;;;13.38;3.75;;;13.90;99.90;;;;;;4999645;28;20041;-90
2021/12/31 00:50:31;;;;;;;10.90;3.40;;;13.90;99.90;;;;;;5003455;28;20041;-90
2021/12/31 00:52:57;;;;;;;10.07;3.13;;;13.90;99.90;;;;;;5011419;28;20165;-90
2021/12/31 00:55:22;;;;;;;10.57;3.72;;;13.90;99.90;;;;;;4981517;28;20469;-90
2021/12/31 00:57:49;;;;;;;11.93;3.45;;;13.90;99.90;;;;;;5002007;28;20038;-90
2021/12/31 01:00:16;;;;;;;12.50;3.90;;;13.90;99.90;;;;;;4975408;28;20443;-90
2021/12/31 01:02:43;;;;;;;12.55;3.58;;;13.90;99.90;;;;;;4991173;28;20402;-90
2021/12/31 01:05:10;;;;;;;11.30;3.40;;;13.90;99.90;;;;;;4998648;28;20038;-90
2021/12/31 01:07:35;;;;;;;11.38;3.13;;;14.00;99.90;;;;;;4975289;28;20129;-90
2021/12/31 01:10:02;;;;;;;13.38;3.42;;;14.00;99.90;;;;;;4991047;28;20176;-90
2021/12/31 01:12:28;;;;;;;12.50;3.20;;;14.00;99.90;;;;;;5004479;28;20037;-90
2021/12/31 01:20:09;;;;;;;12.77;3.58;;;14.00;99.90;;;;;;5008825;28;20046;-90
2021/12/31 01:22:35;;;;;;;10.23;3.60;;;14.00;99.90;;;;;;4980809;28;20439;-90
2021/12/31 01:25:04;;;;;;;10.63;3.33;;;14.00;99.90;;;;;;4977826;28;20046;-89
2021/12/31 01:27:30;;;;;;;11.40;3.03;;;14.00;99.90;;;;;;4981866;28;20038;-89
2021/12/31 01:29:56;;;;;;;14.80;3.78;;;14.00;99.90;;;;;;4999384;28;20455;-90
2021/12/31 01:32:21;;;;;;;13.95;3.05;;;13.90;99.90;;;;;;5007417;28;20031;-89
2021/12/31 01:34:47;;;;;;;13.23;3.67;;;14.00;99.90;;;;;;4988564;28;20083;-90
2021/12/31 01:37:13;;;;;;;10.25;2.92;;;13.90;99.90;;;;;;4992269;28;20042;-89
2021/12/31 01:39:38;;;;;;;12.75;3.50;;;13.90;99.90;;;;;;5003724;28;20048;-90
2021/12/31 01:42:08;;;;;;;17.60;4.05;;;14.00;99.90;;;;;;5002049;28;20041;-90
2021/12/31 01:44:41;;;;;;;12.82;3.47;;;14.00;99.90;;;;;;4998243;28;20042;-90
2021/12/31 01:47:11;;;;;;;11.05;3.50;;;13.90;99.90;;;;;;4990408;28;20038;-90
2021/12/31 01:49:41;;;;;;;14.43;3.72;;;14.00;99.90;;;;;;4982972;28;20042;-90
2021/12/31 01:52:09;;;;;;;11.27;3.83;;;14.00;99.90;;;;;;4987042;28;20038;-90
2021/12/31 01:54:37;;;;;;;14.05;3.55;;;14.00;99.90;;;;;;4993494;28;20092;-90
2021/12/31 01:57:07;;;;;;;11.07;3.80;;;14.00;99.90;;;;;;4993343;28;20045;-90
2021/12/31 01:59:36;;;;;;;14.45;3.80;;;14.00;99.90;;;;;;5014991;28;20156;-90
2021/12/31 02:02:05;;;;;;;11.60;3.80;;;14.00;99.90;;;;;;4974794;28;20084;-89
2021/12/31 02:04:31;;;;;;;11.45;3.58;;;14.00;99.90;;;;;;4977041;28;20452;-90
2021/12/31 02:06:58;;;;;;;15.20;3.70;;;14.00;99.90;;;;;;5003856;28;20119;-90
2021/12/31 02:09:24;;;;;;;11.00;3.65;;;14.00;99.90;;;;;;5019082;28;20065;-89
2021/12/31 02:11:54;;;;;;;10.85;3.42;;;14.00;99.90;;;;;;5000814;28;21339;-89
2021/12/31 02:14:20;;;;;;;11.55;3.90;;;14.00;99.90;;;;;;5006434;28;20053;-89
2021/12/31 02:20:12;;;;;;;11.10;4.22;;;14.00;99.90;;;;;;5006316;28;20081;-89
2021/12/31 02:22:39;;;;;;;10.07;3.92;;;14.00;99.90;;;;;;5010367;28;20080;-89
2021/12/31 02:25:07;;;;;;;12.43;4.40;;;14.00;99.90;;;;;;5010659;28;20491;-90
2021/12/31 02:27:37;;;;;;;14.25;4.60;;;14.00;99.90;;;;;;4993191;28;20530;-89
2021/12/31 02:30:04;;;;;;;9.95;4.32;;;14.00;99.90;;;;;;4979287;28;20026;-89
2021/12/31 02:32:30;;;;;;;11.45;4.65;;;14.00;99.90;;;;;;4985282;28;20040;-89
2021/12/31 02:34:55;;;;;;;10.80;4.43;;;14.00;99.90;;;;;;4973958;28;20034;-90
2021/12/31 02:37:21;;;;;;;17.63;4.95;;;14.10;99.90;;;;;;4998770;28;20181;-90
2021/12/31 02:39:48;;;;;;;12.70;4.95;;;14.10;99.90;;;;;;5006362;28;20068;-90
2021/12/31 02:42:13;;;;;;;9.93;4.65;;;14.10;99.90;;;;;;5000285;28;20034;-90
2021/12/31 02:44:40;;;;;;;10.98;4.30;;;14.10;99.90;;;;;;4989998;28;20038;-89
2021/12/31 02:47:06;;;;;;;8.18;4.00;;;14.20;99.90;;;;;;4979480;28;20503;-90
2021/12/31 02:49:36;;;;;;;9.85;4.45;;;14.20;99.90;;;;;;4989290;28;20037;-90
2021/12/31 02:52:12;;;;;;;9.98;3.72;;;14.20;99.90;;;;;;4997997;28;20038;-89
2021/12/31 02:54:43;;;;;;;10.20;4.03;;;14.20;99.90;;;;;;4984898;28;20406;-90
2021/12/31 02:57:11;;;;;;;10.93;4.30;;;14.30;99.90;;;;;;4997538;28;20054;-90
2021/12/31 02:59:37;;;;;;;10.63;4.30;;;14.30;99.90;;;;;;4981083;28;20111;-89
2021/12/31 03:02:06;;;;;;;8.95;3.78;;;14.30;99.90;;;;;;4990000;28;20089;-90
2021/12/31 03:04:38;;;;;;;11.45;4.55;;;14.30;99.90;;;;;;4989780;28;20050;-90
2021/12/31 03:07:06;;;;;;;10.70;4.07;;;14.30;99.90;;;;;;4980717;28;20475;-90
2021/12/31 03:09:33;;;;;;;9.00;4.20;;;14.30;99.90;;;;;;4983717;28;20508;-89
2021/12/31 03:11:59;;;;;;;10.30;4.35;;;14.30;99.90;;;;;;5006844;28;20040;-90
2021/12/31 03:14:28;;;;;;;9.90;4.43;;;14.40;99.90;;;;;;5004131;28;20089;-89
2021/12/31 03:16:53;;;;;;;11.32;4.35;;;14.40;99.90;;;;;;5006936;28;20092;-90
2021/12/31 03:19:20;;;;;;;9.82;3.92;;;14.40;99.90;;;;;;4988820;28;20037;-90
2021/12/31 03:21:46;;;;;;;11.05;4.28;;;14.40;99.90;;;;;;4996298;28;20518;-90
2021/12/31 03:24:12;;;;;;;10.02;3.75;;;14.30;99.90;;;;;;4995564;28;20057;-90
2021/12/31 03:26:38;;;;;;;9.15;4.10;;;14.40;99.90;;;;;;5012547;28;20038;-90
2021/12/31 03:29:04;;;;;;;10.18;3.88;;;14.40;99.90;;;;;;4987766;28;20092;-89
2021/12/31 03:31:29;;;;;;;10.23;4.18;;;14.40;99.90;;;;;;4984645;28;20038;-90
2021/12/31 03:33:55;;;;;;;11.65;4.25;;;14.40;99.90;;;;;;4992575;28;20157;-90
2021/12/31 03:36:20;;;;;;;9.10;4.05;;;14.40;99.90;;;;;;5025819;28;20679;-90
2021/12/31 03:38:46;;;;;;;10.30;3.65;;;14.40;99.90;;;;;;5007036;28;20105;-89
2021/12/31 03:41:12;;;;;;;9.32;4.07;;;14.40;99.90;;;;;;4995009;28;20034;-90
2021/12/31 03:43:38;;;;;;;9.73;3.45;;;14.40;99.90;;;;;;4976704;28;20046;-90
2021/12/31 03:46:04;;;;;;;9.57;4.03;;;14.40;99.90;;;;;;4976684;28;20074;-90
2021/12/31 03:48:30;;;;;;;8.40;3.85;;;14.40;99.90;;;;;;4992245;28;20042;-90
2021/12/31 03:50:55;;;;;;;9.32;4.20;;;14.40;99.90;;;;;;5007768;28;20152;-90
2021/12/31 03:53:21;;;;;;;10.40;3.95;;;14.40;99.90;;;;;;4993631;28;20045;-90
2021/12/31 03:55:47;;;;;;;10.55;4.05;;;14.40;99.90;;;;;;4990005;28;20046;-90
2021/12/31 03:58:13;;;;;;;10.25;4.00;;;14.40;99.90;;;;;;4987669;28;20560;-90
2021/12/31 04:00:39;;;;;;;8.25;3.85;;;14.40;99.90;;;;;;4996066;28;20167;-90
2021/12/31 04:03:09;;;;;;;10.02;3.95;;;14.40;99.90;;;;;;4997006;28;20430;-90
2021/12/31 04:05:37;;;;;;;10.43;4.28;;;14.40;99.90;;;;;;4979640;28;20045;-91
2021/12/31 04:08:03;;;;;;;9.10;4.20;;;14.40;99.90;;;;;;4987899;28;20399;-90
2021/12/31 04:10:29;;;;;;;8.48;3.90;;;14.40;99.90;;;;;;4987079;28;20034;-90
2021/12/31 04:12:55;;;;;;;9.10;4.20;;;14.40;99.90;;;;;;4987500;28;20506;-90
2021/12/31 04:15:21;;;;;;;9.88;4.20;;;14.30;99.90;;;;;;5014372;28;20061;-90
2021/12/31 04:17:47;;;;;;;11.65;4.63;;;14.30;99.90;;;;;;5011138;28;20483;-90
2021/12/31 04:20:21;;;;;;;9.50;4.47;;;14.30;99.90;;;;;;5000383;28;20038;-89
2021/12/31 04:22:54;;;;;;;8.63;4.40;;;14.30;99.90;;;;;;4983839;28;20030;-90
2021/12/31 04:25:21;;;;;;;10.27;4.15;;;14.30;99.90;;;;;;4999567;28;20038;-90
2021/12/31 04:27:46;;;;;;;11.88;4.70;;;14.30;99.90;;;;;;4979675;28;20120;-90
2021/12/31 04:30:12;;;;;;;10.13;4.45;;;14.30;99.90;;;;;;4986896;28;20125;-90
2021/12/31 04:32:39;;;;;;;10.18;4.32;;;14.20;99.90;;;;;;5001370;28;20038;-89
2021/12/31 04:35:06;;;;;;;10.63;4.60;;;14.30;99.90;;;;;;5004958;28;20041;-89
2021/12/31 04:37:32;;;;;;;9.48;4.15;;;14.30;99.90;;;;;;4979278;28;20404;-90
2021/12/31 04:39:57;;;;;;;8.65;3.83;;;14.20;99.90;;;;;;4999662;28;20522;-90
2021/12/31 04:42:23;;;;;;;9.98;4.30;;;14.20;99.90;;;;;;4987424;28;20042;-90
2021/12/31 04:44:48;;;;;;;8.35;4.30;;;14.20;99.90;;;;;;4993656;28;20117;-89
2021/12/31 04:47:14;;;;;;;8.90;3.90;;;14.20;99.90;;;;;;4987061;28;20454;-89
2021/12/31 04:49:40;;;;;;;9.88;3.92;;;14.20;99.90;;;;;;5018332;28;20047;-90
2021/12/31 04:52:05;;;;;;;9.25;3.80;;;14.20;99.90;;;;;;5003606;28;20750;-89
2021/12/31 04:54:31;;;;;;;9.10;3.67;;;14.20;99.90;;;;;;4979742;28;20053;-90
2021/12/31 04:56:58;;;;;;;9.63;3.20;;;14.20;99.90;;;;;;4983418;28;20053;-90
2021/12/31 04:59:24;;;;;;;9.55;3.53;;;14.20;99.90;;;;;;4991857;28;20121;-89
2021/12/31 05:01:50;;;;;;;9.25;3.25;;;14.20;99.90;;;;;;4975501;28;20042;-89
2021/12/31 05:04:16;;;;;;;8.75;3.00;;;14.20;99.90;;;;;;5003772;28;20048;-90
2021/12/31 05:06:42;;;;;;;10.00;3.60;;;14.20;99.90;;;;;;4986403;28;20088;-90
2021/12/31 05:09:09;;;;;;;8.63;3.53;;;14.20;99.90;;;;;;5007543;28;20038;-90
2021/12/31 05:11:35;;;;;;;7.68;3.17;;;14.20;99.90;;;;;;5006240;28;20072;-90
2021/12/31 05:14:00;;;;;;;8.73;3.08;;;14.20;99.90;;;;;;4998828;28;20065;-90
2021/12/31 05:16:26;;;;;;;9.95;3.30;;;14.10;99.90;;;;;;4975381;28;20039;-90
2021/12/31 05:18:51;;;;;;;9.60;3.42;;;14.10;99.90;;;;;;4981967;28;20050;-88
2021/12/31 05:21:17;;;;;;;9.90;3.20;;;14.10;99.90;;;;;;4983041;28;20038;-89
2021/12/31 05:23:43;;;;;;;7.53;2.95;;;14.00;99.90;;;;;;4998468;28;20405;-88
2021/12/31 05:26:08;;;;;;;7.60;3.00;;;14.10;99.90;;;;;;4990789;28;20727;-90
2021/12/31 05:28:34;;;;;;;8.63;3.13;;;14.00;99.90;;;;;;5005162;28;20038;-89
2021/12/31 05:30:59;;;;;;;9.48;3.47;;;14.00;99.90;;;;;;4977742;28;20105;-89
2021/12/31 05:33:25;;;;;;;9.20;3.10;;;14.00;99.90;;;;;;4991742;28;20600;-89
2021/12/31 05:35:50;;;;;;;8.85;3.13;;;13.90;99.90;;;;;;4986854;28;20497;-90
2021/12/31 05:38:16;;;;;;;7.43;3.05;;;13.90;99.90;;;;;;5015275;28;20044;-90
2021/12/31 05:40:42;;;;;;;8.57;2.83;;;13.90;99.90;;;;;;4979439;28;20912;-90
2021/12/31 05:43:07;;;;;;;8.50;2.97;;;13.90;99.90;;;;;;4991156;28;20483;-90
2021/12/31 05:45:33;;;;;;;9.10;3.40;;;13.90;99.90;;;;;;4983027;28;20042;-90
2021/12/31 05:47:59;;;;;;;8.05;2.90;;;13.90;99.90;;;;;;5001355;28;20569;-90
2021/12/31 05:50:32;;;;;;;7.40;2.65;;;13.90;99.90;;;;;;4980945;28;20122;-90
2021/12/31 05:52:59;;;;;;;8.40;2.83;;;13.90;99.90;;;;;;5017909;28;20038;-90
2021/12/31 05:55:25;;;;;;;7.18;2.88;;;13.80;99.90;;;;;;4985581;28;20092;-90
2021/12/31 05:57:51;;;;;;;9.20;3.13;;;13.80;99.90;;;;;;5001828;28;20076;-89
2021/12/31 06:00:17;;;;;;;8.23;2.78;;;13.80;99.90;;;;;;4983184;28;20065;-90
2021/12/31 06:02:42;;;;;;;8.88;2.50;;;13.80;99.90;;;;;;4982547;28;20076;-90
2021/12/31 06:05:08;;;;;;;8.80;3.10;;;13.80;99.90;;;;;;5008470;28;20073;-89
2021/12/31 06:07:34;;;;;;;9.15;3.10;;;13.70;99.90;;;;;;4974708;28;20034;-89
2021/12/31 06:09:59;;;;;;;7.95;2.58;;;13.70;99.90;;;;;;4989774;28;20510;-90
2021/12/31 06:12:26;;;;;;;9.18;2.90;;;13.60;99.90;;;;;;4985018;28;20033;-89
2021/12/31 06:14:54;;;;;;;8.70;2.83;;;13.60;99.90;;;;;;4995494;28;20039;-89
2021/12/31 06:17:25;;;;;;;11.15;2.92;;;13.60;99.90;;;;;;4990575;28;20050;-89
2021/12/31 06:19:52;;;;;;;8.73;3.30;;;13.60;99.90;;;;;;5001259;28;20080;-88
2021/12/31 06:22:21;;;;;;;10.32;2.88;;;13.50;99.90;;;;;;5000618;28;20093;-88
2021/12/31 06:24:48;;;;;;;8.98;2.72;;;13.50;99.90;;;;;;4979373;28;20045;-89
2021/12/31 06:27:14;;;;;;;8.48;3.03;;;13.50;99.90;;;;;;4987947;28;20046;-89
2021/12/31 06:29:39;;;;;;;8.65;3.15;;;13.50;99.90;;;;;;4981395;28;20034;-88
2021/12/31 06:32:05;;;;;;;9.52;3.38;;;13.50;99.90;;;;;;5007055;28;20530;-89
2021/12/31 06:34:31;;;;;;;8.30;2.92;;;13.50;99.90;;;;;;4990660;28;20058;-89
2021/12/31 06:36:57;;;;;;;10.00;3.92;;;13.50;99.90;;;;;;5004439;28;20113;-89
2021/12/31 06:39:25;;;;;;;10.55;3.28;;;13.50;99.90;;;;;;4993258;28;20169;-89
2021/12/31 06:41:51;;;;;;;9.20;3.67;;;13.50;99.90;;;;;;4984650;28;20038;-89
2021/12/31 06:44:16;;;;;;;9.63;3.60;;;13.50;99.90;;;;;;4984259;28;20392;-89
2021/12/31 06:46:42;;;;;;;8.70;3.40;;;13.50;99.90;;;;;;4990023;28;20108;-88
2021/12/31 06:49:07;;;;;;;9.63;3.60;;;13.50;99.90;;;;;;4980478;28;20061;-89
2021/12/31 06:51:33;;;;;;;9.23;3.53;;;13.50;99.90;;;;;;4983424;28;20041;-89
2021/12/31 06:53:59;;;;;;;10.45;3.58;;;13.50;99.90;;;;;;4983068;28;20033;-88
2021/12/31 06:56:24;;;;;;;10.70;3.60;;;13.40;99.90;;;;;;4993708;28;20038;-89
2021/12/31 06:58:50;;;;;;;9.85;3.65;;;13.50;99.90;;;;;;4982276;28;20049;-90
2021/12/31 07:01:16;;;;;;;8.88;3.08;;;13.40;99.90;;;;;;4979970;28;20087;-88
2021/12/31 07:03:41;;;;;;;8.95;3.10;;;13.40;99.90;;;;;;5033656;28;20411;-90
2021/12/31 07:06:07;;;;;;;10.70;3.30;;;13.40;99.90;;;;;;4996585;28;20038;-90
2021/12/31 07:08:32;;;;;;;10.60;3.45;;;13.40;99.90;;;;;;5011658;28;20046;-90
2021/12/31 07:10:58;;;;;;;8.43;3.35;;;13.40;99.90;;;;;;4997156;28;20422;-89
2021/12/31 07:13:24;;;;;;;7.90;3.00;;;13.40;99.90;;;;;;4998410;28;20080;-90
2021/12/31 07:15:50;;;;;;;9.60;3.30;;;13.40;99.90;;;;;;4998422;28;20540;-92
2021/12/31 07:18:20;;;;;;;8.45;3.50;;;13.50;99.90;;;;;;4989265;28;20061;-90
2021/12/31 07:20:46;;;;;;;9.45;3.08;;;13.40;99.90;;;;;;4981118;28;20042;-91
2021/12/31 07:23:14;;;;;;;9.25;3.35;;;13.40;99.90;;;;;;4984214;28;20038;-90
2021/12/31 07:25:41;;;;;;;10.70;3.30;;;13.40;99.90;;;;;;5009331;28;20042;-90
2021/12/31 07:28:08;;;;;;;9.50;3.15;;;13.40;99.90;;;;;;4999406;28;20042;-90
2021/12/31 07:30:34;;;;;;;8.52;3.40;;;13.40;99.90;;;;;;4984190;28;20056;-89
2021/12/31 07:33:00;;;;;;;8.38;3.30;;;13.40;99.90;;;;;;4993323;28;20531;-89
2021/12/31 07:35:26;;;;;;;8.05;3.78;;;13.40;99.90;;;;;;5005947;28;20037;-90
2021/12/31 07:37:55;;;;;;;9.05;3.47;;;13.30;99.90;;;;;;4979093;28;20082;-90
2021/12/31 07:40:37;;;;;;;10.85;3.60;;;13.30;99.90;;;;;;5002226;28;20069;-90
2021/12/31 07:43:04;;;;;;;8.73;3.40;;;13.30;99.90;;;;;;4984578;28;20050;-90
2021/12/31 07:45:30;;;;;;;9.43;3.47;;;13.20;99.90;;;;;;4993016;28;20065;-90
2021/12/31 07:47:55;;;;;;;9.38;3.10;;;13.20;99.90;;;;;;4990860;28;20034;-91
2021/12/31 07:50:21;;;;;;;8.27;3.05;;;13.20;99.90;;;;;;4980681;28;20053;-90
2021/12/31 07:52:46;;;;;;;9.05;3.10;;;13.20;99.90;;;;;;4980507;28;20046;-90
2021/12/31 07:55:12;;;;;;;8.15;3.53;;;13.20;99.90;;;;;;5008542;28;20173;-90
2021/12/31 07:57:37;;;;;;;9.25;3.38;;;13.10;99.90;;;;;;4993302;28;20407;-90
2021/12/31 08:00:05;;;;;;;8.52;3.40;;;13.10;99.90;;;;;;5002307;28;20132;-90
2021/12/31 08:02:31;;;;;;;9.13;3.50;;;13.10;99.90;;;;;;5006683;28;20057;-90
2021/12/31 08:04:56;;;;;;;9.25;3.40;;;13.00;99.90;;;;;;4991663;28;20499;-90
2021/12/31 08:07:22;;;;;;;9.77;3.60;;;13.00;99.90;;;;;;4976752;28;20038;-90
2021/12/31 08:09:47;;;;;;;8.98;3.55;;;13.00;99.90;;;;;;4993228;28;20507;-89
2021/12/31 08:12:13;;;;;;;9.15;3.60;;;13.00;99.90;;;;;;4987102;28;20054;-90
2021/12/31 08:14:39;;;;;;;8.18;3.10;;;13.00;99.90;;;;;;5003993;28;20064;-90
2021/12/31 08:17:04;;;;;;;10.20;3.88;;;13.10;99.90;;;;;;4980105;28;20077;-89
2021/12/31 08:19:30;;;;;;;10.60;3.80;;;13.10;99.90;;;;;;5003334;28;20044;-89
2021/12/31 08:21:55;;;;;;;8.63;3.60;;;13.10;99.90;;;;;;5003777;28;20045;-89
2021/12/31 08:24:21;;;;;;;10.32;3.50;;;13.10;99.90;;;;;;4992890;28;20042;-89
2021/12/31 08:26:47;;;;;;;8.10;3.13;;;13.20;99.90;;;;;;4992907;28;20546;-89
2021/12/31 08:29:13;;;;;;;8.27;3.60;;;13.20;99.90;;;;;;4975984;28;20121;-90
2021/12/31 08:31:40;;;;;;;9.02;3.38;;;13.20;99.90;;;;;;5005806;28;20042;-90
2021/12/31 08:34:08;;;;;;;10.60;3.85;;;13.20;99.90;;;;;;4985689;28;20045;-89
2021/12/31 08:36:34;;;;;;;9.18;3.55;;;13.20;99.90;;;;;;5004307;28;20045;-88
2021/12/31 08:39:00;;;;;;;9.10;3.95;;;13.20;99.90;;;;;;5015156;28;20045;-89
2021/12/31 08:41:25;;;;;;;11.65;4.38;;;13.30;99.90;;;;;;5000374;28;20037;-89
2021/12/31 08:43:51;;;;;;;9.15;3.38;;;13.30;99.90;;;;;;5005868;28;20037;-90
2021/12/31 08:46:17;;;;;;;7.88;3.30;;;13.30;99.90;;;;;;5019410;28;20468;-90
2021/12/31 08:48:42;;;;;;;9.45;3.55;;;13.30;99.90;;;;;;4988640;28;20491;-89
2021/12/31 08:51:08;;;;;;;9.57;3.50;;;13.30;99.90;;;;;;4993935;28;20550;-89
2021/12/31 08:53:34;;;;;;;11.70;3.90;;;13.30;99.90;;;;;;5003715;28;20068;-89
2021/12/31 08:55:59;;;;;;;12.10;3.85;;;13.30;99.90;;;;;;4980117;28;20516;-88
2021/12/31 08:58:25;;;;;;;8.02;3.80;;;13.30;99.90;;;;;;4999775;28;20065;-89
2021/12/31 09:00:50;;;;;;;9.88;3.58;;;13.30;99.90;;;;;;5005188;28;20037;-89
2021/12/31 09:03:16;;;;;;;9.10;3.88;;;13.30;99.90;;;;;;5008478;28;20045;-89
2021/12/31 09:05:47;;;;;;;8.98;4.00;;;13.30;99.90;;;;;;4982849;28;20037;-89
2021/12/31 09:08:14;;;;;;;9.30;3.58;;;13.30;99.90;;;;;;4975465;28;20488;-88
2021/12/31 09:10:39;;;;;;;9.27;3.70;;;13.30;99.90;;;;;;5003021;28;20038;-88
2021/12/31 09:13:05;;;;;;;8.48;3.60;;;13.30;99.90;;;;;;5015266;28;20037;-89
2021/12/31 09:15:30;;;;;;;8.93;3.83;;;13.30;99.90;;;;;;5001933;28;20045;-89
2021/12/31 09:17:56;;;;;;;8.60;3.03;;;13.30;99.90;;;;;;5001266;28;20041;-89
2021/12/31 09:20:22;;;;;;;7.57;3.42;;;13.30;99.90;;;;;;5002361;28;20038;-89
2021/12/31 09:22:47;;;;;;;8.07;3.05;;;13.30;99.90;;;;;;4997692;28;20081;-89
2021/12/31 09:25:14;;;;;;;7.97;3.47;;;13.40;99.90;;;;;;4995424;28;20038;-89
2021/12/31 09:27:40;;;;;;;7.68;3.20;;;13.40;99.90;;;;;;4994335;28;20030;-88
2021/12/31 09:30:06;;;;;;;9.13;3.40;;;13.40;99.90;;;;;;4995748;28;20038;-89
2021/12/31 09:32:32;;;;;;;7.22;3.17;;;13.40;99.90;;;;;;4982694;28;20033;-88
2021/12/31 09:34:58;;;;;;;8.65;3.50;;;13.40;99.90;;;;;;4973283;28;20411;-89
2021/12/31 09:37:24;;;;;;;8.80;3.30;;;13.40;99.90;;;;;;4999554;28;20037;-89
2021/12/31 09:39:50;;;;;;;7.53;3.05;;;13.40;99.90;;;;;;4982738;28;20046;-89
2021/12/31 09:42:15;;;;;;;9.25;3.28;;;13.40;99.90;;;;;;4974726;28;20042;-89
2021/12/31 09:44:46;;;;;;;9.77;3.72;;;13.40;99.90;;;;;;5001210;28;20045;-89
2021/12/31 09:47:13;;;;;;;8.85;3.53;;;13.50;99.90;;;;;;4979365;28;20088;-88
2021/12/31 09:49:39;;;;;;;9.18;3.88;;;13.50;99.90;;;;;;4998816;28;20041;-89
2021/12/31 09:52:10;;;;;;;9.57;3.67;;;13.50;99.90;;;;;;5004353;28;20483;-89
2021/12/31 09:54:44;;;;;;;9.30;3.75;;;13.50;99.90;;;;;;5019906;28;20052;-89
2021/12/31 09:57:18;;;;;;;8.80;3.40;;;13.50;99.90;;;;;;5003778;28;20078;-89
2021/12/31 09:59:45;;;;;;;9.90;4.13;;;13.50;99.90;;;;;;4974558;28;20537;-89
2021/12/31 10:02:11;;;;;;;9.73;3.67;;;13.40;99.90;;;;;;4982352;28;20046;-89
2021/12/31 10:04:57;;;;;;;10.30;3.92;;;13.40;99.90;;;;;;5006866;28;20061;-89
2021/12/31 10:07:24;;;;;;;10.23;4.20;;;13.40;99.90;;;;;;5002754;28;20088;-89
2021/12/31 10:10:11;;;;;;;9.38;3.90;;;13.40;99.90;;;;;;4977200;28;20038;-89
2021/12/31 10:12:47;;;;;;;8.10;3.53;;;13.50;99.90;;;;;;4985156;28;20117;-88
2021/12/31 10:15:13;;;;;;;8.48;3.83;;;13.40;99.90;;;;;;4995994;28;20132;-89
2021/12/31 10:17:39;;;;;;;9.40;3.53;;;13.40;99.90;;;;;;4997872;28;20045;-89
2021/12/31 10:20:05;;;;;;;9.00;3.88;;;13.50;99.90;;;;;;4992400;28;20034;-88
2021/12/31 10:22:30;;;;;;;9.32;3.45;;;13.50;99.90;;;;;;4982896;28;20111;-88
2021/12/31 10:24:57;;;;;;;8.50;3.42;;;13.50;99.90;;;;;;4989607;28;20042;-88
2021/12/31 10:27:25;;;;;;;9.32;3.78;;;13.50;99.90;;;;;;5005575;28;20487;-89
2021/12/31 10:30:07;;;;;;;9.05;3.58;;;13.50;99.90;;;;;;4991359;28;20457;-89
2021/12/31 10:32:40;;;;;;;9.10;3.95;;;13.50;99.90;;;;;;4982113;28;20039;-89
2021/12/31 10:35:10;;;;;;;9.82;3.97;;;13.40;99.90;;;;;;4977449;28;20053;-88
2021/12/31 10:38:01;;;;;;;9.48;3.50;;;13.40;99.90;;;;;;5013428;28;20038;-88
2021/12/31 10:40:36;;;;;;;8.38;3.70;;;13.40;99.90;;;;;;4993129;28;20045;-88
2021/12/31 10:43:15;;;;;;;9.77;4.38;;;13.40;99.90;;;;;;4992325;28;20040;-88
2021/12/31 10:46:16;;;;;;;8.90;4.05;;;13.40;99.90;;;;;;5007979;28;20508;-89
2021/12/31 10:48:47;;;;;;;10.88;3.83;;;13.40;99.90;;;;;;4986367;28;20054;-88
2021/12/31 10:51:18;;;;;;;9.48;4.30;;;13.40;99.90;;;;;;4990242;28;20543;-88
2021/12/31 10:53:53;;;;;;;10.85;4.38;;;13.40;99.90;;;;;;5005676;28;20083;-88
2021/12/31 10:56:19;;;;;;;10.63;4.50;;;13.40;99.90;;;;;;5004921;28;20044;-89
2021/12/31 10:58:47;;;;;;;8.88;3.78;;;13.40;99.90;;;;;;5007357;28;20063;-89
2021/12/31 11:01:15;;;;;;;9.20;4.25;;;13.40;99.90;;;;;;4990242;28;20045;-89
2021/12/31 11:03:41;;;;;;;10.13;4.10;;;13.40;99.90;;;;;;5007985;28;20045;-89
2021/12/31 11:06:10;;;;;;;9.57;4.25;;;13.40;99.90;;;;;;4989251;28;20121;-89
2021/12/31 11:08:35;;;;;;;8.77;4.10;;;13.50;99.90;;;;;;5005169;28;20038;-89
2021/12/31 11:11:02;;;;;;;10.02;4.63;;;13.50;99.90;;;;;;4990518;28;20496;-89
2021/12/31 11:13:30;;;;;;;9.75;4.03;;;13.50;99.90;;;;;;4999920;28;20038;-89
2021/12/31 11:15:58;;;;;;;10.10;4.25;;;13.60;99.90;;;;;;4990315;28;20084;-89
2021/12/31 11:18:24;;;;;;;10.70;4.63;;;13.50;99.90;;;;;;4992095;28;20045;-90
2021/12/31 11:20:52;;;;;;;8.90;4.13;;;13.50;99.90;;;;;;4992142;28;20046;-90
2021/12/31 11:23:24;;;;;;;10.05;4.63;;;13.60;99.90;;;;;;4997400;28;20123;-90
2021/12/31 11:26:01;;;;;;;9.80;4.43;;;13.60;99.90;;;;;;4989837;28;20089;-90
2021/12/31 11:28:33;;;;;;;9.50;4.20;;;13.60;99.90;;;;;;5002215;28;20499;-89
2021/12/31 11:31:17;;;;;;;9.10;4.60;;;13.60;99.90;;;;;;4999984;28;20045;-89
2021/12/31 11:33:45;;;;;;;9.85;4.63;;;13.60;99.90;;;;;;4983845;28;20138;-89
2021/12/31 11:36:12;;;;;;;10.82;4.57;;;13.60;99.90;;;;;;4981446;28;20046;-89
2021/12/31 11:38:42;;;;;;;10.05;4.80;;;13.60;99.90;;;;;;4976209;28;20407;-89
2021/12/31 11:41:22;;;;;;;11.02;4.93;;;13.60;99.90;;;;;;4977956;28;20087;-89
2021/12/31 11:44:10;;;;;;;9.52;5.00;;;13.60;99.90;;;;;;5000219;28;20104;-89
2021/12/31 11:46:41;;;;;;;10.98;5.28;;;13.60;99.90;;;;;;5028226;28;20029;-89
2021/12/31 11:49:16;;;;;;;9.90;5.30;;;13.60;99.90;;;;;;4991480;28;20076;-89
2021/12/31 11:52:01;;;;;;;12.52;7.90;;;13.50;99.90;;;;;;4982470;28;20499;-89
2021/12/31 11:54:28;;;;;;;12.70;7.45;;;13.60;99.90;;;;;;5000673;28;20042;-89
2021/12/31 11:56:56;;;;;;;11.98;7.25;;;13.50;99.90;;;;;;5000699;28;20046;-89
2021/12/31 11:59:28;;;;;;;12.00;6.95;;;13.50;99.90;;;;;;4992697;28;20074;-89
2021/12/31 12:02:06;;;;;;;11.80;6.90;;;13.50;99.90;;;;;;5008212;28;20064;-89
2021/12/31 12:04:39;;;;;;;14.45;6.22;;;13.50;99.90;;;;;;4998716;28;20046;-89
2021/12/31 12:07:35;;;;;;;12.52;6.05;;;13.50;99.90;;;;;;4988894;28;20058;-89
2021/12/31 12:10:01;;;;;;;11.35;6.20;;;13.40;99.90;;;;;;4996266;28;20046;-89
2021/12/31 12:12:28;;;;;;;11.13;6.13;;;13.40;99.90;;;;;;4984181;28;20052;-89
2021/12/31 12:14:56;;;;;;;12.07;7.13;;;13.40;99.90;;;;;;4995720;28;20043;-88
2021/12/31 12:17:31;;;;;;;11.40;6.68;;;13.50;99.90;;;;;;5007370;28;20137;-89
2021/12/31 12:20:02;;;;;;;12.50;7.47;;;13.50;99.90;;;;;;4992141;28;20432;-89
2021/12/31 12:22:32;;;;;;;14.20;9.47;;;13.40;99.90;;;;;;4999286;28;20089;-89
2021/12/31 12:25:28;;;;;;;12.77;7.85;;;13.40;99.90;;;;;;4990196;28;20117;-88
2021/12/31 12:28:05;;;;;;;12.20;7.47;;;13.40;99.90;;;;;;5017678;28;20144;-88
2021/12/31 12:30:34;;;;;;;14.23;7.72;;;13.40;99.90;;;;;;4992757;28;20034;-89
2021/12/31 12:35:40;;;;;;;13.32;6.55;;;13.40;99.90;;;;;;5018130;28;20053;-89
2021/12/31 12:38:07;;;;;;;10.35;5.47;;;13.40;99.90;;;;;;5011762;28;20045;-90
2021/12/31 12:40:51;;;;;;;13.85;6.53;;;13.40;99.90;;;;;;4977233;28;20038;-90
2021/12/31 12:43:21;;;;;;;11.67;6.33;;;13.40;99.90;;;;;;5008209;28;20060;-89
2021/12/31 12:45:53;;;;;;;15.38;6.60;;;13.30;99.90;;;;;;5003623;28;20507;-90
2021/12/31 12:48:46;;;;;;;15.02;7.57;;;13.20;99.90;;;;;;5000379;28;20034;-90
2021/12/31 12:51:13;;;;;;;15.57;7.03;;;13.20;99.90;;;;;;4986655;28;20117;-90
2021/12/31 12:53:45;;;;;;;12.43;7.10;;;13.10;99.90;;;;;;5018850;28;20038;-89
2021/12/31 12:56:17;;;;;;;14.63;7.37;;;13.10;99.90;;;;;;4996615;28;20404;-90
2021/12/31 12:58:49;;;;;;;13.85;7.90;;;13.00;99.90;;;;;;4994848;28;20046;-89